Time;durP1;ratioP1;P1;durP2;ratioP2;P2;SDS_P1;SDS_P2;PMS_P1;PMS_P2;Temp;Humidity;BMP_temperature;BMP_pressure;BME280_temperature;BME280_humidity;BME280_pressure;Samples;Min_cycle;Max_cycle;Signal;HPM_P1;HPM_P2
2022/01/11 00:02:04;;;;;;;3.72;3.13;;;6.40;99.90;;;;;;4918063;29;20459;-79
2022/01/11 00:04:42;;;;;;;8.57;2.85;;;6.40;99.90;;;;;;4920376;29;20024;-79
2022/01/11 00:07:14;;;;;;;4.97;3.28;;;6.30;99.90;;;;;;4924189;29;20036;-78
2022/01/11 00:09:48;;;;;;;;;;;6.20;99.90;;;;;;4922101;29;20636;-79
2022/01/11 00:12:20;;;;;;;4.25;3.10;;;6.30;99.90;;;;;;4924658;29;19918;-79
2022/01/11 00:14:45;;;;;;;3.95;3.55;;;6.30;99.90;;;;;;4921121;29;20022;-78
2022/01/11 00:17:29;;;;;;;3.70;2.75;;;6.30;99.90;;;;;;4907547;29;20028;-79
2022/01/11 00:20:12;;;;;;;5.57;2.72;;;6.20;99.90;;;;;;4920161;29;20036;-78
2022/01/11 00:26:15;;;;;;;6.60;3.88;;;6.30;99.90;;;;;;4921638;29;20028;-78
2022/01/11 00:28:41;;;;;;;6.05;4.03;;;6.10;99.90;;;;;;4920857;29;20080;-79
2022/01/11 00:31:09;;;;;;;3.95;3.13;;;6.10;99.90;;;;;;4923914;28;20632;-78
2022/01/11 00:33:43;;;;;;;4.50;3.13;;;6.10;99.90;;;;;;4922573;29;20043;-78
2022/01/11 00:36:42;;;;;;;7.35;3.85;;;6.00;99.90;;;;;;4923335;29;20024;-78
2022/01/11 00:42:50;;;;;;;4.65;4.07;;;6.00;99.90;;;;;;4884618;29;20040;-78
2022/01/11 00:45:43;;;;;;;6.88;4.20;;;6.00;99.90;;;;;;4913675;29;20032;-78
2022/01/11 00:48:09;;;;;;;4.88;3.95;;;5.90;99.90;;;;;;4924510;28;20538;-78
2022/01/11 00:50:41;;;;;;;5.65;4.30;;;5.90;99.90;;;;;;4920026;29;20047;-79
2022/01/11 00:53:18;;;;;;;6.53;4.60;;;5.90;99.90;;;;;;4924735;29;20218;-79
2022/01/11 01:02:35;;;;;;;6.30;3.45;;;5.90;99.90;;;;;;4940973;28;20142;-79
2022/01/11 01:05:07;;;;;;;6.22;4.47;;;5.90;99.90;;;;;;4927842;29;20118;-78
2022/01/11 01:07:33;;;;;;;4.90;3.30;;;5.90;99.90;;;;;;4948441;28;20442;-78
2022/01/11 01:10:50;;;;;;;;;;;;;;;;;;;;;
2022/01/11 01:13:49;;;;;;;3.17;2.50;;;5.90;99.90;;;;;;4946795;28;20038;-78
2022/01/11 01:16:20;;;;;;;2.72;2.17;;;5.90;99.90;;;;;;4933437;29;20048;-78
2022/01/11 01:19:00;;;;;;;4.80;4.10;;;5.90;99.90;;;;;;4924060;29;20024;-79
2022/01/11 01:22:10;;;;;;;6.03;4.03;;;5.90;99.90;;;;;;4919252;29;20034;-79
2022/01/11 01:25:14;;;;;;;6.88;4.57;;;5.90;99.90;;;;;;4921822;29;20035;-79
2022/01/11 01:28:06;;;;;;;3.53;2.95;;;5.90;99.90;;;;;;4911276;28;20028;-78
2022/01/11 01:30:33;;;;;;;4.70;3.60;;;5.90;99.90;;;;;;4922352;29;20058;-78
2022/01/11 01:36:11;;;;;;;6.13;3.67;;;5.90;99.90;;;;;;4925236;29;20081;-79
2022/01/11 01:38:53;;;;;;;5.82;3.90;;;5.90;99.90;;;;;;4924798;29;20029;-79
2022/01/11 01:44:41;;;;;;;4.17;3.23;;;5.90;99.90;;;;;;4924534;28;20043;-78
2022/01/11 01:47:26;;;;;;;5.22;3.70;;;5.90;99.90;;;;;;4926121;28;20757;-79
2022/01/11 01:53:37;;;;;;;3.42;3.13;;;5.80;99.90;;;;;;4934269;28;20028;-79
2022/01/11 01:56:28;;;;;;;4.70;3.00;;;5.90;99.90;;;;;;4925443;29;20119;-78
2022/01/11 02:02:46;;;;;;;4.03;3.10;;;5.80;99.90;;;;;;4920594;29;20522;-79
2022/01/11 02:06:06;;;;;;;4.35;3.17;;;5.80;99.90;;;;;;4924712;29;20054;-79
2022/01/11 02:26:57;;;;;;;5.05;3.47;;;5.80;99.90;;;;;;4720863;30;20071;-79
2022/01/11 02:49:56;;;;;;;5.32;2.63;;;5.60;99.90;;;;;;4743562;30;20064;-79
2022/01/11 02:52:25;;;;;;;5.60;3.75;;;5.60;99.90;;;;;;4796842;29;20482;-79
2022/01/11 02:54:51;;;;;;;4.68;3.38;;;5.70;99.90;;;;;;4897765;29;20041;-80
2022/01/11 02:57:16;;;;;;;6.00;4.10;;;5.60;99.90;;;;;;4971549;28;20039;-79
2022/01/11 02:59:42;;;;;;;5.43;3.67;;;5.60;99.90;;;;;;4964627;28;20037;-80
2022/01/11 03:02:11;;;;;;;4.90;3.67;;;5.60;99.90;;;;;;4985985;28;20118;-80
2022/01/11 03:04:39;;;;;;;4.53;3.30;;;5.60;99.90;;;;;;4983552;28;20507;-80
2022/01/11 03:07:10;;;;;;;4.90;3.25;;;5.60;99.90;;;;;;4967855;28;20031;-80
2022/01/11 03:09:59;;;;;;;5.97;3.30;;;5.60;99.90;;;;;;4983047;28;20042;-80
2022/01/11 03:12:25;;;;;;;4.32;3.30;;;5.60;99.90;;;;;;4979637;28;20066;-79
2022/01/11 03:14:51;;;;;;;2.85;2.60;;;5.60;99.90;;;;;;4981424;28;20105;-79
2022/01/11 03:17:27;;;;;;;3.53;3.15;;;5.60;99.90;;;;;;4986687;28;20171;-80
2022/01/11 03:19:53;;;;;;;4.50;3.63;;;5.50;99.90;;;;;;4983850;28;20027;-79
2022/01/11 03:22:20;;;;;;;4.55;3.78;;;5.40;99.90;;;;;;4978862;28;20030;-80
2022/01/11 03:24:46;;;;;;;5.00;3.15;;;5.40;99.90;;;;;;4981650;28;20158;-80
2022/01/11 03:27:12;;;;;;;6.15;4.05;;;5.40;99.90;;;;;;4967796;28;20433;-79
2022/01/11 03:29:41;;;;;;;4.47;3.30;;;5.50;99.90;;;;;;4983011;28;20031;-79
2022/01/11 03:32:19;;;;;;;4.35;3.28;;;5.50;99.90;;;;;;4985054;28;20027;-79
2022/01/11 03:34:46;;;;;;;5.35;3.90;;;5.40;99.90;;;;;;4981925;28;20385;-80
2022/01/11 03:37:18;;;;;;;5.95;4.07;;;5.30;99.90;;;;;;4968160;28;20031;-80
2022/01/11 03:39:44;;;;;;;5.05;3.83;;;5.30;99.90;;;;;;4966632;28;20357;-80
2022/01/11 03:42:10;;;;;;;4.35;3.22;;;5.30;99.90;;;;;;4978139;28;20027;-80
2022/01/11 03:45:14;;;;;;;5.47;4.22;;;5.30;99.90;;;;;;4982667;28;20030;-79
2022/01/11 03:51:01;;;;;;;4.78;3.72;;;5.30;99.90;;;;;;4969893;28;20038;-79
2022/01/11 03:53:49;;;;;;;4.20;3.00;;;5.30;99.90;;;;;;4964096;28;20090;-79
2022/01/11 03:56:34;;;;;;;5.38;3.88;;;5.40;99.90;;;;;;4967164;28;20030;-78
2022/01/11 03:59:18;;;;;;;4.35;3.08;;;5.50;99.40;;;;;;4960580;28;20038;-79
2022/01/11 04:01:52;;;;;;;4.85;3.40;;;5.50;99.40;;;;;;4979445;28;20026;-79
2022/01/11 04:04:52;;;;;;;4.03;3.42;;;5.50;98.80;;;;;;4963795;28;20027;-79
2022/01/11 04:07:29;;;;;;;5.32;3.78;;;5.70;98.50;;;;;;4977459;28;20023;-79
2022/01/11 04:09:56;;;;;;;3.15;2.08;;;5.70;98.30;;;;;;4980608;28;20454;-79
2022/01/11 04:12:27;;;;;;;6.15;3.78;;;5.60;97.90;;;;;;4985878;28;20054;-80
2022/01/11 04:14:52;;;;;;;3.05;2.22;;;5.70;98.00;;;;;;4965807;28;20065;-79
2022/01/11 04:17:19;;;;;;;4.78;2.80;;;5.70;97.40;;;;;;4960564;28;20474;-77
2022/01/11 04:19:45;;;;;;;4.78;2.92;;;5.80;97.40;;;;;;4980902;28;20478;-78
2022/01/11 04:22:20;;;;;;;4.10;2.88;;;5.70;97.00;;;;;;4984186;28;20038;-79
2022/01/11 04:24:49;;;;;;;4.20;2.95;;;5.80;96.60;;;;;;4980528;28;20287;-78
2022/01/11 04:27:15;;;;;;;3.58;2.60;;;5.90;95.90;;;;;;4985019;28;20089;-78
2022/01/11 04:30:07;;;;;;;2.85;2.45;;;5.90;96.00;;;;;;4987269;28;20051;-78
2022/01/11 04:33:12;;;;;;;5.82;3.33;;;5.90;95.90;;;;;;4950559;28;20062;-79
2022/01/11 04:36:26;;;;;;;6.75;3.90;;;5.90;96.00;;;;;;4972715;28;20034;-79
2022/01/11 04:38:57;;;;;;;5.32;2.95;;;5.90;95.50;;;;;;4973655;28;20035;-78
2022/01/11 04:41:33;;;;;;;3.28;2.67;;;6.00;94.20;;;;;;4978843;28;20019;-78
2022/01/11 04:46:48;;;;;;;4.63;2.53;;;5.90;94.30;;;;;;4979878;28;20034;-78
2022/01/11 04:52:48;;;;;;;3.25;2.33;;;6.10;93.50;;;;;;4911653;29;20047;-78
2022/01/11 04:55:19;;;;;;;4.10;2.85;;;6.00;93.10;;;;;;4906832;28;20074;-79
2022/01/11 04:57:48;;;;;;;4.45;3.03;;;6.10;92.80;;;;;;4905580;28;20086;-79
2022/01/11 05:00:21;;;;;;;5.93;3.22;;;6.10;92.90;;;;;;4883809;29;20043;-79
2022/01/11 05:02:51;;;;;;;3.88;1.95;;;6.10;92.40;;;;;;4905677;29;20035;-78
2022/01/11 05:05:26;;;;;;;3.70;2.30;;;6.10;91.90;;;;;;4900808;28;20445;-78
2022/01/11 05:07:53;;;;;;;4.20;2.63;;;6.20;91.80;;;;;;4902995;28;20035;-79
2022/01/11 05:10:33;;;;;;;3.33;2.05;;;6.10;91.80;;;;;;4900205;28;20052;-79
2022/01/11 05:13:01;;;;;;;4.63;2.83;;;6.10;91.90;;;;;;4903264;29;20078;-79
2022/01/11 05:15:28;;;;;;;3.10;2.80;;;6.10;92.00;;;;;;4900621;29;20495;-78
2022/01/11 05:17:54;;;;;;;5.88;2.22;;;6.10;91.70;;;;;;4901668;29;20020;-79
2022/01/11 05:20:23;;;;;;;2.60;1.98;;;6.20;90.60;;;;;;4904462;29;20029;-79
2022/01/11 05:22:51;;;;;;;2.00;1.73;;;6.20;91.10;;;;;;4888743;29;20035;-79
2022/01/11 05:25:23;;;;;;;4.18;2.58;;;6.20;90.80;;;;;;4900553;29;20040;-79
2022/01/11 05:27:54;;;;;;;3.28;1.73;;;6.30;90.80;;;;;;4905502;29;20025;-78
2022/01/11 05:30:24;;;;;;;4.23;2.57;;;6.20;90.60;;;;;;4900060;29;20392;-78
2022/01/11 05:32:56;;;;;;;4.95;2.30;;;6.20;90.30;;;;;;4884797;28;20039;-78
2022/01/11 05:35:26;;;;;;;2.72;1.98;;;6.30;89.50;;;;;;4899892;29;20032;-78
2022/01/11 05:37:53;;;;;;;4.32;3.00;;;6.30;88.90;;;;;;4905173;29;20029;-78
2022/01/11 05:40:24;;;;;;;2.33;1.92;;;6.20;89.10;;;;;;4900421;29;20458;-78
2022/01/11 05:42:54;;;;;;;6.03;2.80;;;6.30;89.20;;;;;;4905383;29;20044;-79
2022/01/11 05:45:20;;;;;;;3.72;2.03;;;6.20;89.40;;;;;;4883545;29;20068;-79
2022/01/11 05:47:52;;;;;;;2.00;1.45;;;6.20;88.50;;;;;;4905285;29;20079;-79
2022/01/11 05:50:19;;;;;;;3.40;2.42;;;6.30;86.90;;;;;;4906842;28;20503;-79
2022/01/11 05:52:45;;;;;;;6.00;2.60;;;6.30;87.10;;;;;;4907638;29;20103;-79
2022/01/11 05:55:12;;;;;;;15.15;2.92;;;6.30;87.20;;;;;;4886975;28;20463;-78
2022/01/11 05:57:41;;;;;;;4.15;2.58;;;6.20;88.20;;;;;;4908539;28;20031;-79
2022/01/11 06:00:10;;;;;;;3.50;2.85;;;6.10;88.30;;;;;;4888144;28;20514;-79
2022/01/11 06:02:35;;;;;;;5.10;2.60;;;6.10;87.90;;;;;;4886245;29;20032;-78
2022/01/11 06:05:01;;;;;;;4.15;2.55;;;6.10;89.10;;;;;;4903016;29;20510;-79
2022/01/11 06:07:27;;;;;;;3.28;2.38;;;6.10;89.00;;;;;;4908235;28;20031;-78
2022/01/11 06:09:53;;;;;;;3.95;2.38;;;6.00;89.10;;;;;;4888516;29;20630;-79
2022/01/11 06:12:19;;;;;;;4.22;2.40;;;6.00;89.50;;;;;;4883374;29;20053;-79
2022/01/11 06:14:44;;;;;;;3.45;2.90;;;6.10;89.10;;;;;;4904153;29;20040;-79
2022/01/11 06:17:10;;;;;;;3.63;2.90;;;6.00;89.60;;;;;;4907236;29;20028;-79
2022/01/11 06:19:36;;;;;;;4.55;3.15;;;6.00;89.90;;;;;;4905069;28;20468;-79
2022/01/11 06:22:02;;;;;;;4.47;3.22;;;6.00;89.40;;;;;;4906207;29;20057;-79
2022/01/11 06:24:29;;;;;;;2.95;2.28;;;5.90;90.00;;;;;;4889968;28;20039;-80
2022/01/11 06:26:55;;;;;;;4.45;2.20;;;6.00;90.00;;;;;;4906327;29;20021;-78
2022/01/11 06:29:21;;;;;;;4.20;3.33;;;5.90;89.20;;;;;;4905863;28;20407;-79
2022/01/11 06:31:46;;;;;;;8.38;2.65;;;5.90;89.70;;;;;;4898115;28;20483;-79
2022/01/11 06:34:13;;;;;;;7.22;2.30;;;5.90;89.30;;;;;;4904772;29;20043;-79
2022/01/11 06:36:38;;;;;;;3.28;1.92;;;5.90;90.00;;;;;;4890488;28;20039;-79
2022/01/11 06:39:04;;;;;;;6.57;3.83;;;5.80;90.10;;;;;;4903915;29;20029;-79
2022/01/11 06:41:30;;;;;;;4.00;2.88;;;5.90;90.30;;;;;;4902538;29;20099;-79
2022/01/11 06:43:56;;;;;;;5.15;2.97;;;5.80;89.90;;;;;;4886723;29;20301;-79
2022/01/11 06:46:23;;;;;;;7.15;3.47;;;5.90;90.30;;;;;;4906298;29;20028;-79
2022/01/11 06:48:52;;;;;;;4.22;2.53;;;5.80;90.50;;;;;;4903371;28;20044;-79
2022/01/11 06:51:19;;;;;;;6.28;3.00;;;5.70;90.70;;;;;;4900799;28;20630;-78
2022/01/11 06:53:59;;;;;;;5.00;2.80;;;5.70;90.90;;;;;;4888448;28;20060;-79
2022/01/11 06:56:34;;;;;;;7.50;2.58;;;5.60;91.20;;;;;;4909650;28;20035;-78
2022/01/11 06:59:00;;;;;;;7.32;2.80;;;5.60;91.20;;;;;;4899717;28;20111;-78
2022/01/11 07:01:29;;;;;;;4.97;3.22;;;5.60;91.20;;;;;;4889943;29;20166;-78
2022/01/11 07:03:55;;;;;;;6.40;3.90;;;5.60;91.30;;;;;;4886062;28;20032;-79
2022/01/11 07:06:27;;;;;;;5.80;2.55;;;5.60;91.60;;;;;;4889471;28;20036;-77
2022/01/11 07:08:53;;;;;;;5.90;3.35;;;5.60;91.90;;;;;;4886608;28;20029;-78
2022/01/11 07:11:21;;;;;;;2.60;2.40;;;5.70;91.30;;;;;;4906030;28;20116;-78
2022/01/11 07:13:48;;;;;;;3.65;2.60;;;5.80;91.30;;;;;;4887848;28;20021;-78
2022/01/11 07:16:14;;;;;;;4.78;3.83;;;5.70;91.10;;;;;;4906183;28;20032;-78
2022/01/11 07:18:44;;;;;;;5.22;3.58;;;5.80;91.40;;;;;;4904574;29;20028;-78
2022/01/11 07:21:11;;;;;;;4.65;3.63;;;5.70;91.80;;;;;;4905743;29;20098;-78
2022/01/11 07:23:36;;;;;;;6.13;3.45;;;5.80;91.10;;;;;;4904275;28;20066;-79
2022/01/11 07:26:03;;;;;;;5.22;3.50;;;5.80;91.30;;;;;;4906973;28;20064;-78
2022/01/11 07:28:31;;;;;;;6.28;3.72;;;5.80;91.30;;;;;;4890930;29;20056;-78
2022/01/11 07:30:57;;;;;;;4.07;2.42;;;5.80;91.40;;;;;;4899600;29;20029;-78
2022/01/11 07:33:25;;;;;;;5.45;2.80;;;5.90;90.90;;;;;;4905214;29;20513;-79
2022/01/11 07:35:51;;;;;;;4.82;3.40;;;5.90;91.10;;;;;;4887486;29;20175;-79
2022/01/11 07:38:17;;;;;;;7.35;4.03;;;5.90;91.40;;;;;;4888903;28;20056;-79
2022/01/11 07:40:46;;;;;;;9.57;3.08;;;5.80;91.40;;;;;;4886350;29;20430;-79
2022/01/11 07:43:15;;;;;;;5.80;3.42;;;5.80;91.70;;;;;;4901100;28;20507;-79
2022/01/11 07:45:41;;;;;;;6.97;3.08;;;5.80;91.60;;;;;;4903388;28;20039;-79
2022/01/11 07:48:07;;;;;;;6.72;3.42;;;5.80;91.60;;;;;;4905176;28;20032;-79
2022/01/11 07:50:35;;;;;;;4.68;3.40;;;5.80;91.50;;;;;;4884510;28;20032;-79
2022/01/11 07:53:01;;;;;;;5.95;3.75;;;5.80;91.70;;;;;;4906679;29;20111;-79
2022/01/11 07:55:30;;;;;;;5.78;4.00;;;5.90;91.70;;;;;;4884737;29;20111;-79
2022/01/11 07:57:58;;;;;;;6.80;3.90;;;5.90;91.50;;;;;;4906659;29;20471;-78
2022/01/11 08:00:27;;;;;;;8.25;5.03;;;5.90;91.50;;;;;;4884692;29;20039;-79
2022/01/11 08:02:53;;;;;;;7.15;5.03;;;5.90;91.80;;;;;;4913618;28;20024;-79
2022/01/11 08:05:21;;;;;;;6.30;4.55;;;5.90;91.80;;;;;;4891872;28;20094;-79
2022/01/11 08:07:47;;;;;;;4.95;2.88;;;6.00;91.60;;;;;;4894750;28;20020;-79
2022/01/11 08:10:17;;;;;;;5.00;3.15;;;6.00;91.00;;;;;;4900996;29;20407;-79
2022/01/11 08:12:43;;;;;;;8.80;3.95;;;6.10;91.00;;;;;;4906331;29;20105;-79
2022/01/11 08:15:09;;;;;;;6.15;3.92;;;6.10;91.10;;;;;;4900587;28;20029;-78
2022/01/11 08:17:34;;;;;;;7.68;4.22;;;6.20;91.00;;;;;;4889149;29;20028;-79
2022/01/11 08:20:05;;;;;;;8.75;5.22;;;6.20;90.90;;;;;;4883615;29;20028;-78
2022/01/11 08:22:31;;;;;;;5.82;4.30;;;6.20;90.80;;;;;;4902573;28;20029;-78
2022/01/11 08:24:57;;;;;;;5.28;3.80;;;6.20;91.10;;;;;;4903858;29;20025;-77
2022/01/11 08:27:26;;;;;;;5.32;3.33;;;6.20;91.00;;;;;;4899078;29;20543;-78
2022/01/11 08:29:54;;;;;;;5.95;3.40;;;6.20;91.00;;;;;;4901502;28;20377;-78
2022/01/11 08:32:20;;;;;;;8.25;4.03;;;6.20;91.10;;;;;;4898490;29;20106;-78
2022/01/11 08:34:46;;;;;;;5.15;3.40;;;6.40;90.60;;;;;;4887876;28;20550;-78
2022/01/11 08:37:14;;;;;;;6.68;4.72;;;6.30;90.90;;;;;;4905267;29;20407;-79
2022/01/11 08:39:40;;;;;;;7.15;4.72;;;6.30;90.80;;;;;;4885825;28;20033;-79
2022/01/11 08:42:15;;;;;;;10.43;5.95;;;6.40;90.70;;;;;;4887788;29;20441;-77
2022/01/11 08:44:46;;;;;;;11.15;5.18;;;6.40;91.00;;;;;;4902309;28;20136;-78
2022/01/11 08:47:12;;;;;;;7.30;5.40;;;6.30;91.00;;;;;;4905176;29;20028;-80
2022/01/11 08:49:38;;;;;;;5.25;3.55;;;6.30;91.40;;;;;;4898667;28;20631;-79
2022/01/11 08:52:05;;;;;;;8.73;4.70;;;6.30;91.20;;;;;;4887871;29;20301;-79
2022/01/11 08:54:32;;;;;;;9.18;5.75;;;6.40;91.20;;;;;;4886311;28;20050;-79
2022/01/11 08:56:58;;;;;;;7.32;4.40;;;6.40;91.60;;;;;;4904203;29;20020;-80
2022/01/11 08:59:27;;;;;;;11.68;4.30;;;6.40;91.80;;;;;;4887081;29;20029;-79
2022/01/11 09:01:58;;;;;;;8.05;4.93;;;6.40;91.20;;;;;;4896245;29;20028;-80
2022/01/11 09:04:26;;;;;;;10.48;5.45;;;6.50;91.10;;;;;;4903689;28;20033;-80
2022/01/11 09:06:53;;;;;;;9.60;5.40;;;6.50;91.10;;;;;;4903689;29;20128;-80
2022/01/11 09:09:19;;;;;;;13.10;6.07;;;6.60;91.20;;;;;;4902791;29;20433;-80
2022/01/11 09:11:46;;;;;;;11.27;6.45;;;6.70;91.30;;;;;;4899497;29;20036;-80
2022/01/11 09:14:12;;;;;;;9.85;5.40;;;6.80;90.80;;;;;;4885525;29;20395;-80
2022/01/11 09:16:38;;;;;;;10.95;5.90;;;6.70;90.70;;;;;;4908578;28;20407;-80
2022/01/11 09:19:04;;;;;;;12.55;6.47;;;6.70;90.80;;;;;;4884921;28;20549;-80
2022/01/11 09:21:31;;;;;;;10.20;6.20;;;6.80;91.00;;;;;;4900397;29;20087;-80
2022/01/11 09:23:57;;;;;;;9.18;5.55;;;6.80;90.50;;;;;;4905147;28;20029;-80
2022/01/11 09:26:23;;;;;;;9.60;6.65;;;6.90;89.70;;;;;;4908153;29;20500;-80
2022/01/11 09:28:50;;;;;;;9.10;6.25;;;7.00;89.80;;;;;;4905696;28;20091;-80
2022/01/11 09:31:16;;;;;;;9.85;5.40;;;7.10;90.20;;;;;;4908432;28;20040;-80
2022/01/11 09:33:42;;;;;;;8.02;4.55;;;7.20;87.70;;;;;;4900326;28;20024;-80
2022/01/11 09:36:08;;;;;;;9.70;5.05;;;7.20;88.30;;;;;;4900937;28;20508;-80
2022/01/11 09:38:34;;;;;;;11.55;5.78;;;7.10;89.30;;;;;;4938468;28;20029;-80
2022/01/11 09:41:01;;;;;;;6.97;4.63;;;7.10;88.40;;;;;;4901115;29;20044;-80
2022/01/11 09:43:28;;;;;;;7.15;5.13;;;7.10;87.10;;;;;;4907566;28;20028;-80
2022/01/11 09:45:55;;;;;;;6.85;4.60;;;7.10;88.00;;;;;;4906412;28;20386;-80
2022/01/11 09:48:23;;;;;;;11.07;7.22;;;7.10;88.60;;;;;;4891351;28;20495;-80
2022/01/11 09:50:49;;;;;;;9.43;5.38;;;7.00;90.10;;;;;;4912364;29;20036;-79
2022/01/11 09:53:15;;;;;;;10.02;6.57;;;7.00;90.10;;;;;;4911813;29;20023;-80
2022/01/11 09:55:43;;;;;;;13.32;7.45;;;7.00;90.00;;;;;;4910993;29;20028;-80
2022/01/11 09:58:11;;;;;;;9.25;5.97;;;7.10;90.00;;;;;;4912101;29;20070;-80
2022/01/11 10:00:37;;;;;;;11.02;7.38;;;7.00;90.00;;;;;;4912008;28;20032;-80
2022/01/11 10:03:04;;;;;;;12.45;6.47;;;7.00;90.30;;;;;;4895532;28;20028;-79
2022/01/11 10:05:31;;;;;;;10.27;6.13;;;6.90;89.80;;;;;;4912127;29;20056;-79
2022/01/11 10:07:56;;;;;;;6.82;4.72;;;7.00;90.00;;;;;;4911660;29;20032;-79
2022/01/11 10:10:25;;;;;;;10.93;7.32;;;7.10;88.50;;;;;;4911547;29;20509;-80
2022/01/11 10:12:54;;;;;;;6.72;4.68;;;7.10;89.10;;;;;;4912980;28;20104;-79
2022/01/11 10:15:31;;;;;;;12.75;7.22;;;7.30;87.00;;;;;;4894754;29;20039;-79
2022/01/11 10:17:57;;;;;;;10.77;7.80;;;7.20;88.20;;;;;;4895413;28;20032;-80
2022/01/11 10:20:25;;;;;;;8.00;5.53;;;7.30;88.90;;;;;;4896195;29;20483;-79
2022/01/11 10:22:56;;;;;;;11.35;8.07;;;7.40;87.70;;;;;;4912075;29;20108;-80
2022/01/11 10:25:22;;;;;;;11.52;6.78;;;7.30;89.10;;;;;;4894609;28;20368;-79
2022/01/11 10:27:56;;;;;;;18.90;8.07;;;7.40;86.40;;;;;;4912648;28;20028;-80
2022/01/11 10:30:23;;;;;;;11.27;7.68;;;7.40;87.50;;;;;;4893289;29;20570;-80
2022/01/11 10:32:51;;;;;;;13.52;7.03;;;7.50;86.90;;;;;;4912096;29;20027;-79
2022/01/11 10:35:18;;;;;;;11.10;5.93;;;7.50;84.90;;;;;;4914902;28;20028;-79
2022/01/11 10:37:50;;;;;;;13.38;6.43;;;7.50;85.50;;;;;;4894984;28;20028;-79
2022/01/11 10:40:20;;;;;;;;;;;7.40;86.30;;;;;;4911416;28;20058;-80
2022/01/11 10:42:56;;;;;;;13.15;8.18;;;7.40;87.90;;;;;;4911875;29;19903;-79
2022/01/11 10:45:30;;;;;;;13.02;8.00;;;7.40;87.10;;;;;;4909574;29;20497;-78
2022/01/11 10:47:59;;;;;;;9.32;5.97;;;7.40;87.10;;;;;;4911616;28;20028;-78
2022/01/11 10:50:37;;;;;;;15.02;7.88;;;7.50;85.90;;;;;;4889191;28;20052;-78
2022/01/11 10:53:19;;;;;;;11.93;7.55;;;7.60;86.70;;;;;;4906068;29;20051;-79
2022/01/11 10:55:50;;;;;;;13.20;7.68;;;7.70;87.10;;;;;;4882873;29;20043;-78
2022/01/11 10:58:15;;;;;;;12.48;6.25;;;7.70;86.80;;;;;;4904738;29;20056;-78
2022/01/11 11:00:49;;;;;;;11.95;7.80;;;7.50;86.80;;;;;;4898103;28;20067;-78
2022/01/11 11:03:20;;;;;;;14.27;8.65;;;7.40;87.50;;;;;;4896440;28;20759;-78
2022/01/11 11:06:07;;;;;;;18.55;9.23;;;7.50;86.80;;;;;;4902839;28;20045;-79
2022/01/11 11:08:36;;;;;;;10.43;4.78;;;7.70;86.20;;;;;;4890656;29;20025;-78
2022/01/11 11:11:10;;;;;;;14.60;8.35;;;7.60;84.40;;;;;;4898569;29;20673;-79
2022/01/11 11:13:44;;;;;;;13.82;8.18;;;7.70;85.40;;;;;;4903752;28;20028;-79
2022/01/11 11:16:14;;;;;;;11.65;7.80;;;7.80;84.90;;;;;;4901111;28;20133;-79
2022/01/11 11:18:43;;;;;;;11.85;8.07;;;7.90;83.40;;;;;;4904985;29;20033;-79
2022/01/11 11:21:25;;;;;;;12.32;8.20;;;7.90;83.70;;;;;;4904992;29;20040;-79
2022/01/11 11:24:00;;;;;;;17.92;8.05;;;8.10;83.30;;;;;;4887112;29;20098;-79
2022/01/11 11:26:31;;;;;;;11.30;7.80;;;8.00;81.70;;;;;;4906527;29;20020;-79
2022/01/11 11:28:58;;;;;;;12.98;8.15;;;8.10;81.00;;;;;;4890834;28;20033;-79
2022/01/11 11:31:27;;;;;;;13.25;8.30;;;8.30;81.30;;;;;;4888633;29;20514;-79
2022/01/11 11:33:59;;;;;;;16.20;8.63;;;8.30;80.90;;;;;;4886575;28;20025;-79
2022/01/11 11:36:30;;;;;;;13.63;7.60;;;8.40;80.90;;;;;;4905993;29;20087;-79
2022/01/11 11:39:18;;;;;;;15.00;8.35;;;8.40;81.40;;;;;;4902525;28;20032;-79
2022/01/11 11:42:04;;;;;;;11.18;6.65;;;8.30;82.20;;;;;;4899297;28;20041;-79
2022/01/11 11:44:37;;;;;;;12.52;7.93;;;8.20;80.00;;;;;;4899820;29;20542;-79
2022/01/11 11:47:07;;;;;;;13.93;8.60;;;8.00;80.00;;;;;;4906113;29;20020;-79
2022/01/11 11:50:09;;;;;;;11.23;6.95;;;8.20;79.90;;;;;;4892581;28;20052;-79
2022/01/11 11:52:38;;;;;;;16.70;8.75;;;8.10;80.70;;;;;;4901174;29;20032;-79
2022/01/11 11:55:33;;;;;;;15.18;8.30;;;8.20;81.40;;;;;;4896411;29;20521;-79
2022/01/11 11:58:07;;;;;;;12.13;7.80;;;8.40;79.70;;;;;;4887529;29;20510;-80
2022/01/11 12:00:42;;;;;;;16.65;8.73;;;8.50;79.70;;;;;;4900454;29;20064;-79
2022/01/11 12:03:18;;;;;;;12.65;7.95;;;8.60;79.90;;;;;;4914632;28;20024;-79
2022/01/11 12:05:57;;;;;;;12.73;8.45;;;8.70;77.50;;;;;;4907052;28;20075;-79
2022/01/11 12:08:37;;;;;;;12.93;7.80;;;8.60;79.20;;;;;;4892088;28;20117;-79
2022/01/11 12:11:27;;;;;;;11.90;7.82;;;8.40;76.90;;;;;;4904601;29;20036;-79
2022/01/11 12:13:54;;;;;;;11.55;6.75;;;8.40;78.30;;;;;;4902765;29;20563;-79
2022/01/11 12:16:34;;;;;;;11.73;7.63;;;8.50;76.40;;;;;;4900449;29;20062;-79
2022/01/11 12:19:10;;;;;;;13.15;7.00;;;8.50;76.40;;;;;;4885316;29;20036;-79
2022/01/11 12:21:52;;;;;;;10.98;6.65;;;8.50;76.30;;;;;;4891619;29;20077;-79
2022/01/11 12:24:41;;;;;;;10.95;7.47;;;8.30;76.60;;;;;;4904083;29;20041;-79
2022/01/11 12:27:15;;;;;;;13.05;7.68;;;8.30;76.20;;;;;;4907613;28;20425;-79
2022/01/11 12:30:04;;;;;;;10.45;6.38;;;8.50;76.70;;;;;;4901768;29;20032;-79
2022/01/11 12:32:33;;;;;;;9.57;6.43;;;9.00;76.30;;;;;;4905174;29;20039;-79
2022/01/11 12:35:22;;;;;;;10.50;6.68;;;9.10;74.70;;;;;;4900504;28;20035;-79
2022/01/11 12:37:48;;;;;;;10.85;6.78;;;9.70;73.20;;;;;;4887505;29;20036;-79
2022/01/11 12:40:40;;;;;;;12.75;6.78;;;10.60;71.20;;;;;;4901987;28;20032;-79
2022/01/11 12:43:17;;;;;;;11.57;6.25;;;11.00;69.60;;;;;;4877804;29;20021;-79
2022/01/11 12:46:50;;;;;;;10.20;6.40;;;11.70;68.50;;;;;;4883485;29;20020;-78
2022/01/11 12:49:16;;;;;;;9.32;5.57;;;12.00;66.70;;;;;;4930243;29;20074;-79
2022/01/11 12:51:52;;;;;;;14.18;5.88;;;10.90;68.00;;;;;;4926191;29;20071;-79
2022/01/11 12:54:26;;;;;;;10.45;5.75;;;11.80;67.50;;;;;;4893980;29;20036;-79
2022/01/11 12:57:09;;;;;;;11.45;6.13;;;12.30;65.00;;;;;;4883911;29;20053;-79
2022/01/11 12:59:38;;;;;;;9.82;6.93;;;12.90;64.00;;;;;;4881102;29;20032;-78
2022/01/11 13:02:17;;;;;;;6.75;4.55;;;12.20;64.60;;;;;;4885150;28;20052;-78
2022/01/11 13:04:48;;;;;;;11.30;7.22;;;11.70;65.80;;;;;;4880296;29;20039;-79
2022/01/11 13:07:18;;;;;;;12.07;6.75;;;12.00;65.60;;;;;;4884464;29;20029;-79
2022/01/11 13:09:49;;;;;;;10.82;7.13;;;11.80;65.80;;;;;;4882850;29;20029;-79
2022/01/11 13:12:29;;;;;;;11.05;7.85;;;11.70;66.00;;;;;;4876047;28;20492;-79
2022/01/11 13:15:04;;;;;;;14.20;6.68;;;11.60;66.20;;;;;;4878875;29;20033;-78
2022/01/11 13:17:30;;;;;;;11.38;7.10;;;10.60;67.70;;;;;;4885281;28;20031;-78
2022/01/11 13:20:09;;;;;;;10.98;7.35;;;11.00;67.80;;;;;;4880618;28;20100;-78
2022/01/11 13:23:03;;;;;;;12.73;7.65;;;11.20;67.40;;;;;;4889424;29;20020;-79
2022/01/11 13:26:11;;;;;;;12.95;6.03;;;11.20;67.70;;;;;;4877576;28;20030;-79
2022/01/11 13:28:49;;;;;;;14.98;7.22;;;10.90;67.70;;;;;;4906126;29;20127;-78
2022/01/11 13:31:24;;;;;;;15.43;7.63;;;10.80;68.30;;;;;;4885646;29;20099;-78
2022/01/11 13:33:57;;;;;;;12.13;7.78;;;10.60;69.10;;;;;;4874481;29;20032;-78
2022/01/11 13:36:48;;;;;;;13.77;9.50;;;11.50;67.50;;;;;;4886777;29;20483;-79
2022/01/11 13:39:24;;;;;;;14.93;9.13;;;12.50;65.50;;;;;;4889099;29;20064;-78
2022/01/11 13:41:55;;;;;;;15.63;8.98;;;12.80;63.40;;;;;;4882250;28;20451;-79
2022/01/11 13:44:30;;;;;;;13.10;8.93;;;14.20;62.50;;;;;;4873980;28;20116;-79
2022/01/11 13:47:20;;;;;;;13.98;9.63;;;15.50;58.90;;;;;;4864312;29;20032;-79
2022/01/11 13:49:57;;;;;;;13.82;9.45;;;16.70;56.60;;;;;;4882033;28;20049;-79
2022/01/11 13:52:24;;;;;;;14.38;8.95;;;15.70;56.90;;;;;;4879417;29;20029;-79
2022/01/11 13:54:55;;;;;;;15.15;9.23;;;14.80;58.00;;;;;;4881460;29;20029;-79
2022/01/11 13:57:30;;;;;;;14.93;7.72;;;14.60;58.70;;;;;;4879076;29;20112;-79
2022/01/11 14:00:13;;;;;;;17.35;10.27;;;13.30;59.70;;;;;;4883940;28;20039;-78
2022/01/11 14:02:40;;;;;;;21.15;9.57;;;12.30;63.50;;;;;;4864344;29;20040;-78
2022/01/11 14:05:14;;;;;;;47.10;8.15;;;12.30;63.40;;;;;;4888647;29;20033;-78
2022/01/11 14:08:06;;;;;;;24.98;11.02;;;12.30;62.60;;;;;;4890210;29;20107;-83
2022/01/11 14:10:36;;;;;;;55.08;11.32;;;12.10;63.80;;;;;;4892882;29;20032;-78
2022/01/11 14:13:06;;;;;;;23.60;8.60;;;11.80;63.50;;;;;;4876559;29;20369;-79
2022/01/11 14:15:32;;;;;;;26.30;10.02;;;11.40;64.10;;;;;;4893115;29;20036;-79
2022/01/11 14:18:02;;;;;;;19.48;9.75;;;12.30;63.20;;;;;;4892557;29;20024;-80
2022/01/11 14:20:33;;;;;;;18.98;10.40;;;12.30;62.20;;;;;;4892183;29;20111;-78
2022/01/11 14:23:03;;;;;;;16.90;8.90;;;12.90;61.20;;;;;;4892760;28;20032;-79
2022/01/11 14:25:38;;;;;;;17.55;10.35;;;12.30;61.00;;;;;;4891361;29;20431;-78
2022/01/11 14:28:05;;;;;;;15.07;8.80;;;12.20;61.90;;;;;;4892656;29;20028;-79
2022/01/11 14:30:44;;;;;;;19.45;9.98;;;11.90;61.60;;;;;;4959028;28;20052;-78
2022/01/11 14:33:28;;;;;;;14.27;9.77;;;11.30;63.10;;;;;;4890674;29;20145;-79
2022/01/11 14:36:21;;;;;;;23.90;9.93;;;10.60;65.50;;;;;;4891443;28;20178;-79
2022/01/11 14:38:49;;;;;;;22.98;10.00;;;9.40;67.90;;;;;;4877186;29;20020;-78